createdAt,value
2023-03-11T00:00:30.712Z,84.94
2023-03-11T00:03:33.589Z,83.90
2023-03-11T00:06:36.221Z,82.27
2023-03-11T00:09:39.202Z,83.05
2023-03-11T00:12:41.816Z,81.36
2023-03-11T00:15:47.360Z,80.03
2023-03-11T00:18:51.272Z,79.78
2023-03-11T00:21:54.328Z,79.19
2023-03-11T00:24:56.957Z,78.89
2023-03-11T00:28:00.589Z,78.41
2023-03-11T00:31:04.083Z,77.80
2023-03-11T00:34:07.146Z,79.93
2023-03-11T00:37:09.688Z,77.63
2023-03-11T00:40:18.785Z,77.30
2023-03-11T00:43:21.341Z,78.63
2023-03-11T00:46:24.497Z,77.79
2023-03-11T00:49:27.128Z,76.50
2023-03-11T00:52:30.088Z,76.44
2023-03-11T00:55:34.627Z,76.15
2023-03-11T00:58:38.247Z,76.04
2023-03-11T01:01:41.074Z,73.94
2023-03-11T01:04:44.056Z,74.69
2023-03-11T01:07:47.564Z,73.28
2023-03-11T01:10:50.621Z,71.40
2023-03-11T01:13:53.932Z,71.50
2023-03-11T01:16:57.141Z,69.58
2023-03-11T01:19:59.693Z,68.61
2023-03-11T01:23:02.709Z,68.78
2023-03-11T01:26:05.323Z,69.62
2023-03-11T01:29:08.263Z,67.70
2023-03-11T01:32:12.346Z,67.59
2023-03-11T01:35:18.334Z,67.40
2023-03-11T01:38:22.245Z,67.97
2023-03-11T01:41:25.039Z,67.21
2023-03-11T01:44:27.900Z,67.95
2023-03-11T01:47:37.746Z,67.57
2023-03-11T01:50:45.829Z,67.54
2023-03-11T01:53:49.226Z,67.91
2023-03-11T01:56:52.656Z,67.83
2023-03-11T01:59:57.872Z,68.13
2023-03-11T02:03:04.504Z,67.08
2023-03-11T02:06:11.651Z,68.74
2023-03-11T02:09:14.506Z,68.57
2023-03-11T02:12:17.501Z,68.96
2023-03-11T02:15:20.154Z,69.32
2023-03-11T02:18:23.529Z,69.71
2023-03-11T02:21:29.695Z,68.78
2023-03-11T02:24:45.614Z,70.37
2023-03-11T02:27:50.160Z,68.56
2023-03-11T02:30:53.796Z,69.00
2023-03-11T02:33:59.591Z,69.11
2023-03-11T02:37:08.397Z,67.13
2023-03-11T02:40:34.093Z,64.00
2023-03-11T02:43:42.384Z,61.22
2023-03-11T02:46:45.691Z,61.55
2023-03-11T02:49:49.080Z,60.33
2023-03-11T02:52:52.158Z,59.95
2023-03-11T02:55:55.176Z,59.84
2023-03-11T02:58:57.809Z,58.82
2023-03-11T03:02:00.683Z,58.52
2023-03-11T03:05:04.104Z,58.93
2023-03-11T03:08:07.105Z,58.39
2023-03-11T03:11:09.740Z,59.51
2023-03-11T03:14:12.861Z,58.46
2023-03-11T03:17:16.303Z,57.50
2023-03-11T03:20:20.766Z,58.42
2023-03-11T03:23:24.050Z,58.44
2023-03-11T03:26:27.136Z,58.36
2023-03-11T03:29:30.873Z,57.96
2023-03-11T03:32:34.372Z,58.30
2023-03-11T03:35:43.515Z,59.06
2023-03-11T03:38:48.465Z,58.58
2023-03-11T03:41:52.015Z,58.87
2023-03-11T03:44:56.123Z,60.04
2023-03-11T03:47:58.974Z,59.63
2023-03-11T03:51:05.065Z,59.30
2023-03-11T03:54:08.410Z,57.93
2023-03-11T03:57:11.504Z,57.06
2023-03-11T04:00:15.885Z,56.33
2023-03-11T04:03:20.200Z,57.77
2023-03-11T04:06:26.115Z,56.33
2023-03-11T04:09:29.555Z,57.57
2023-03-11T04:12:32.310Z,56.06
2023-03-11T04:15:38.365Z,53.34
2023-03-11T04:18:41.572Z,54.76
2023-03-11T04:21:44.580Z,54.94
2023-03-11T04:24:47.794Z,53.42
2023-03-11T04:27:52.355Z,52.49
2023-03-11T04:30:55.463Z,53.59
2023-03-11T04:33:58.722Z,54.10
2023-03-11T04:37:01.788Z,52.76
2023-03-11T04:40:06.951Z,53.22
2023-03-11T04:43:10.013Z,54.01
2023-03-11T04:46:13.264Z,49.36
2023-03-11T04:49:16.749Z,50.90
2023-03-11T04:52:20.021Z,50.08
2023-03-11T04:55:23.174Z,47.86
2023-03-11T04:58:26.425Z,47.35
2023-03-11T05:01:29.264Z,47.60
2023-03-11T05:04:33.134Z,45.51
2023-03-11T05:07:36.963Z,46.49
2023-03-11T05:10:41.966Z,46.88
2023-03-11T05:13:45.332Z,48.59
2023-03-11T05:16:48.907Z,47.67
2023-03-11T05:19:54.158Z,48.42
2023-03-11T05:22:58.435Z,48.34
2023-03-11T05:26:01.445Z,48.98
2023-03-11T05:29:05.141Z,49.96
2023-03-11T05:32:08.156Z,50.18
2023-03-11T05:35:11.227Z,50.42
2023-03-11T05:38:14.767Z,50.55
2023-03-11T05:41:18.877Z,50.75
2023-03-11T05:44:21.676Z,50.17
2023-03-11T05:47:25.400Z,49.26
2023-03-11T05:50:28.625Z,47.17
2023-03-11T05:53:31.641Z,48.01
2023-03-11T05:56:34.311Z,48.40
2023-03-11T05:59:38.360Z,47.07
2023-03-11T06:02:41.679Z,46.50
2023-03-11T06:05:49.760Z,47.35
2023-03-11T06:08:54.865Z,47.81
2023-03-11T06:11:58.662Z,47.90
2023-03-11T06:15:02.562Z,47.69
2023-03-11T06:18:05.689Z,48.78
2023-03-11T06:21:11.676Z,47.62
2023-03-11T06:24:14.724Z,47.90
2023-03-11T06:27:18.424Z,46.99
2023-03-11T06:30:21.701Z,47.69
2023-03-11T06:33:25.073Z,46.82
2023-03-11T06:36:28.046Z,47.42
2023-03-11T06:39:30.583Z,46.45
2023-03-11T06:42:34.279Z,46.63
2023-03-11T06:45:37.418Z,46.37
2023-03-11T06:48:40.846Z,47.19
2023-03-11T06:51:44.417Z,46.98
2023-03-11T06:54:49.913Z,46.86
2023-03-11T06:57:53.045Z,47.24
2023-03-11T07:01:04.015Z,46.52
2023-03-11T07:04:07.264Z,47.04
2023-03-11T07:07:10.628Z,46.15
2023-03-11T07:10:13.452Z,46.25
2023-03-11T07:25:59.566Z,45.27
2023-03-11T07:29:03.148Z,45.27
2023-03-11T07:32:07.752Z,47.26
2023-03-11T07:35:52.439Z,45.89
2023-03-11T07:39:17.705Z,46.44
2023-03-11T07:42:31.379Z,45.69
2023-03-11T07:45:35.868Z,45.75
2023-03-11T07:48:40.397Z,45.40
2023-03-11T07:51:44.098Z,45.68
2023-03-11T07:54:47.523Z,45.51
2023-03-11T07:58:31.207Z,46.42
2023-03-11T08:01:36.674Z,45.29
2023-03-11T08:04:40.730Z,45.89
2023-03-11T08:07:43.296Z,45.67
2023-03-11T08:10:46.321Z,46.01
2023-03-11T08:13:49.471Z,46.12
2023-03-11T08:16:55.804Z,45.93
2023-03-11T08:19:58.498Z,46.98
2023-03-11T08:23:01.790Z,47.36
2023-03-11T08:26:05.603Z,46.65
2023-03-11T08:29:09.144Z,46.44
2023-03-11T08:32:20.394Z,45.96
2023-03-11T08:35:23.789Z,45.70
2023-03-11T08:38:30.212Z,46.09
2023-03-11T08:41:56.095Z,46.22
2023-03-11T08:44:58.877Z,46.97
2023-03-11T08:48:04.680Z,45.75
2023-03-11T08:51:12.026Z,45.43
2023-03-11T08:54:15.156Z,45.99
2023-03-11T08:57:18.165Z,44.95
2023-03-11T09:00:41.346Z,45.89
2023-03-11T09:03:44.252Z,45.11
2023-03-11T09:06:49.035Z,45.55
2023-03-11T09:09:51.753Z,45.94
2023-03-11T09:12:54.673Z,45.27
2023-03-11T09:15:57.829Z,44.25
2023-03-11T09:19:03.958Z,43.78
2023-03-11T09:22:07.044Z,44.05
2023-03-11T09:25:12.730Z,44.12
2023-03-11T09:28:16.667Z,44.00
2023-03-11T09:31:36.651Z,43.85
2023-03-11T09:34:39.400Z,44.75
2023-03-11T09:37:42.201Z,44.83
2023-03-11T09:41:24.232Z,44.65
2023-03-11T09:44:36.639Z,44.58
2023-03-11T09:48:12.311Z,45.24
2023-03-11T09:51:22.343Z,46.90
2023-03-11T09:54:29.037Z,47.80
2023-03-11T09:57:34.068Z,48.25
2023-03-11T10:00:36.738Z,48.74
2023-03-11T10:03:40.308Z,47.65
2023-03-11T10:06:45.542Z,48.99
2023-03-11T10:09:56.927Z,49.37
2023-03-11T10:13:13.579Z,49.48
2023-03-11T10:16:38.587Z,50.77
2023-03-11T10:20:14.821Z,49.21
2023-03-11T10:23:36.893Z,48.96
2023-03-11T10:26:43.724Z,49.79
2023-03-11T10:29:53.525Z,49.13
2023-03-11T10:33:29.656Z,50.04
2023-03-11T10:36:39.788Z,50.39
2023-03-11T10:39:43.020Z,51.63
2023-03-11T10:42:47.111Z,51.24
2023-03-11T10:45:51.313Z,51.18
2023-03-11T10:48:56.694Z,51.57
2023-03-11T10:51:59.754Z,50.74
2023-03-11T10:55:03.425Z,50.45
2023-03-11T10:58:12.852Z,50.37
2023-03-11T11:01:18.223Z,50.23
2023-03-11T11:04:30.286Z,50.21
2023-03-11T11:07:41.191Z,50.14
2023-03-11T11:10:55.380Z,49.18
2023-03-11T11:14:00.669Z,48.17
2023-03-11T11:17:04.183Z,49.02
2023-03-11T11:20:17.340Z,48.98
2023-03-11T11:23:42.712Z,48.78
2023-03-11T11:27:04.455Z,48.96
2023-03-11T11:30:11.226Z,48.77
2023-03-11T11:33:30.793Z,47.61
2023-03-11T11:36:36.179Z,47.92
2023-03-11T11:39:59.905Z,48.45
2023-03-11T11:43:10.158Z,49.63
2023-03-11T11:46:22.070Z,48.95
2023-03-11T11:49:28.754Z,48.80
2023-03-11T11:52:38.034Z,48.90
2023-03-11T11:56:25.640Z,48.08
2023-03-11T11:59:53.578Z,47.53
2023-03-11T12:03:07.666Z,47.38
2023-03-11T12:06:36.235Z,46.93
2023-03-11T12:10:23.355Z,48.38
2023-03-11T12:13:35.857Z,47.31
2023-03-11T12:16:57.030Z,48.13
2023-03-11T12:20:09.405Z,49.33
2023-03-11T12:23:31.169Z,48.65
2023-03-11T12:26:37.388Z,48.60
2023-03-11T12:30:29.825Z,49.04
2023-03-11T12:33:35.595Z,48.42
2023-03-11T12:36:43.950Z,47.77
2023-03-11T12:39:48.039Z,48.40
2023-03-11T12:43:32.678Z,47.01
2023-03-11T12:46:57.729Z,47.14
2023-03-11T12:50:39.616Z,47.34
2023-03-11T12:53:48.060Z,46.77
2023-03-11T12:57:00.527Z,46.68
2023-03-11T13:00:07.623Z,46.04
2023-03-11T13:03:29.714Z,45.83
2023-03-11T13:06:51.461Z,46.30
2023-03-11T13:10:16.010Z,47.82
2023-03-11T13:13:23.555Z,47.06
2023-03-11T13:16:26.345Z,46.78
2023-03-11T13:19:32.198Z,46.91
2023-03-11T13:22:57.713Z,47.17
2023-03-11T13:26:25.903Z,46.19
2023-03-11T13:30:08.053Z,46.98
2023-03-11T13:33:25.901Z,46.42
2023-03-11T13:36:57.231Z,47.27
2023-03-11T13:40:17.001Z,47.24
2023-03-11T13:43:25.440Z,47.51
2023-03-11T14:00:40.598Z,47.53
2023-03-11T14:04:37.565Z,47.53
2023-03-11T14:07:42.095Z,47.83
2023-03-11T14:10:55.144Z,48.44
2023-03-11T14:13:58.398Z,48.76
2023-03-11T14:17:04.111Z,48.63
2023-03-11T14:20:16.430Z,48.54
2023-03-11T14:23:28.457Z,47.94
2023-03-11T14:26:35.074Z,48.36
2023-03-11T14:29:41.052Z,47.42
2023-03-11T14:32:58.124Z,47.55
2023-03-11T14:36:58.385Z,47.46
2023-03-11T14:40:31.217Z,47.14
2023-03-11T14:43:39.748Z,47.77
2023-03-11T14:46:45.294Z,47.97
2023-03-11T14:49:51.446Z,48.79
2023-03-11T14:53:09.320Z,48.27
2023-03-11T14:56:19.160Z,47.97
2023-03-11T14:59:29.999Z,47.88
2023-03-11T15:02:44.753Z,47.63
2023-03-11T15:06:00.427Z,47.64
2023-03-11T15:09:13.697Z,47.69
2023-03-11T15:12:35.063Z,47.99
2023-03-11T15:15:38.363Z,49.02
2023-03-11T15:18:42.655Z,48.23
2023-03-11T15:21:46.679Z,47.98
2023-03-11T15:24:52.005Z,48.74
2023-03-11T15:27:54.996Z,47.37
2023-03-11T15:31:16.850Z,48.35
2023-03-11T15:34:26.325Z,47.74
2023-03-11T15:37:28.837Z,48.07
2023-03-11T15:40:45.537Z,48.03
2023-03-11T15:47:19.376Z,48.39
2023-03-11T15:50:40.065Z,48.53
2023-03-11T15:53:50.443Z,47.64
2023-03-11T15:56:55.321Z,47.94
2023-03-11T16:00:01.067Z,47.99
2023-03-11T16:03:10.253Z,46.82
2023-03-11T16:06:13.185Z,47.63
2023-03-11T16:09:16.507Z,47.37
2023-03-11T16:12:23.421Z,47.59
2023-03-11T16:15:29.412Z,48.08
2023-03-11T16:18:37.502Z,47.78
2023-03-11T16:21:42.822Z,48.30
2023-03-11T16:24:51.229Z,47.44
2023-03-11T16:27:57.524Z,47.82
2023-03-11T16:31:00.486Z,47.69
2023-03-11T16:34:03.330Z,48.08
2023-03-11T16:37:07.290Z,47.20
2023-03-11T16:40:16.362Z,46.58
2023-03-11T16:43:19.221Z,46.67
2023-03-11T16:46:21.934Z,47.00
2023-03-11T16:49:24.861Z,47.24
2023-03-11T16:52:27.721Z,46.87
2023-03-11T16:55:31.018Z,46.92
2023-03-11T16:58:33.701Z,47.24
2023-03-11T17:01:38.639Z,47.23
2023-03-11T17:04:41.597Z,47.61
2023-03-11T17:07:44.591Z,48.04
2023-03-11T17:10:47.238Z,48.74
2023-03-11T17:13:50.989Z,48.27
2023-03-11T17:16:53.545Z,48.34
2023-03-11T17:19:56.601Z,48.70
2023-03-11T17:23:00.485Z,49.25
2023-03-11T17:26:10.772Z,49.24
2023-03-11T17:29:13.567Z,49.29
2023-03-11T17:32:17.591Z,49.83
2023-03-11T17:35:20.435Z,49.62
2023-03-11T17:38:23.598Z,50.29
2023-03-11T17:41:26.423Z,50.37
2023-03-11T17:44:37.905Z,50.28
2023-03-11T17:47:47.593Z,49.83
2023-03-11T17:50:50.729Z,50.82
2023-03-11T17:53:55.102Z,50.37
2023-03-11T17:56:58.327Z,50.40
2023-03-11T18:00:05.665Z,49.43
2023-03-11T18:03:09.845Z,49.19
2023-03-11T18:06:13.014Z,48.97
2023-03-11T18:09:17.131Z,48.77
2023-03-11T18:12:20.748Z,48.83
2023-03-11T18:15:24.477Z,49.37
2023-03-11T18:18:28.024Z,49.57
2023-03-11T18:21:31.368Z,50.40
2023-03-11T18:24:34.162Z,50.29
2023-03-11T18:27:38.306Z,50.73
2023-03-11T18:30:41.161Z,50.51
2023-03-11T18:33:54.895Z,50.74
2023-03-11T18:36:57.726Z,51.20
2023-03-11T18:40:00.682Z,51.07
2023-03-11T18:43:03.747Z,51.70
2023-03-11T18:46:09.250Z,52.05
2023-03-11T18:49:13.330Z,51.61
2023-03-11T18:52:16.809Z,51.71
2023-03-11T18:55:19.865Z,52.20
2023-03-11T18:58:23.175Z,52.22
2023-03-11T19:01:28.313Z,52.47
2023-03-11T19:04:33.109Z,52.87
2023-03-11T19:07:38.819Z,53.16
2023-03-11T19:10:45.309Z,53.17
2023-03-11T19:13:48.392Z,53.76
2023-03-11T19:16:51.702Z,53.25
2023-03-11T19:19:55.103Z,53.54
2023-03-11T19:22:58.191Z,53.70
2023-03-11T19:26:03.353Z,54.33
2023-03-11T19:29:07.900Z,54.54
2023-03-11T19:32:10.699Z,54.71
2023-03-11T19:35:14.798Z,54.77
2023-03-11T19:38:17.641Z,54.28
2023-03-11T19:41:20.931Z,55.06
2023-03-11T19:44:23.661Z,55.40
2023-03-11T19:47:26.811Z,55.85
2023-03-11T19:50:29.855Z,55.99
2023-03-11T19:53:33.972Z,55.56
2023-03-11T19:56:37.261Z,55.89
2023-03-11T20:00:23.494Z,56.62
2023-03-11T20:03:27.527Z,56.13
2023-03-11T20:06:30.580Z,56.67
2023-03-11T20:09:35.098Z,56.77
2023-03-11T20:12:41.378Z,56.84
2023-03-11T20:15:48.881Z,57.63
2023-03-11T20:18:51.765Z,57.43
2023-03-11T20:21:54.676Z,58.33
2023-03-11T20:24:57.464Z,58.64
2023-03-11T20:28:01.377Z,57.95
2023-03-11T20:31:14.160Z,57.86
2023-03-11T20:34:17.588Z,58.50
2023-03-11T20:37:20.456Z,58.60
2023-03-11T20:40:24.231Z,58.90
2023-03-11T20:43:27.081Z,58.79
2023-03-11T20:46:31.309Z,59.00
2023-03-11T20:49:34.672Z,59.04
2023-03-11T20:52:39.896Z,59.22
2023-03-11T20:55:50.040Z,59.41
2023-03-11T20:58:55.954Z,59.23
2023-03-11T21:01:58.690Z,59.49
2023-03-11T21:05:01.894Z,59.46
2023-03-11T21:08:05.168Z,59.86
2023-03-11T21:11:08.461Z,60.32
2023-03-11T21:14:15.206Z,60.33
2023-03-11T21:17:18.407Z,60.60
2023-03-11T21:20:21.973Z,61.39
2023-03-11T21:23:26.867Z,60.71
2023-03-11T21:26:29.622Z,60.55
2023-03-11T21:29:35.767Z,60.74
2023-03-11T21:32:41.076Z,60.91
2023-03-11T21:35:58.690Z,60.70
2023-03-11T21:39:07.239Z,61.07
2023-03-11T21:42:10.291Z,60.92
2023-03-11T21:45:13.546Z,61.27
2023-03-11T21:48:16.515Z,60.92
2023-03-11T21:51:20.242Z,60.54
2023-03-11T21:54:23.417Z,61.50
2023-03-11T21:57:36.763Z,62.08
2023-03-11T22:00:48.822Z,61.83
2023-03-11T22:03:53.601Z,62.10
2023-03-11T22:06:57.427Z,61.99
2023-03-11T22:10:02.066Z,61.90
2023-03-11T22:13:22.588Z,62.00
2023-03-11T22:16:26.723Z,62.03
2023-03-11T22:19:29.675Z,62.11
2023-03-11T22:22:33.298Z,61.59
2023-03-11T22:25:37.405Z,61.90
2023-03-11T22:28:43.656Z,62.68
2023-03-11T22:31:54.252Z,61.85
2023-03-11T22:34:57.646Z,62.36
2023-03-11T22:38:00.231Z,62.24
2023-03-11T22:41:05.864Z,62.57
2023-03-11T22:44:08.705Z,63.02
2023-03-11T22:47:13.907Z,63.15
2023-03-11T22:50:21.087Z,62.93
2023-03-11T22:53:25.454Z,62.72
2023-03-11T22:56:28.040Z,62.74
2023-03-11T22:59:31.622Z,63.25
2023-03-11T23:02:34.474Z,62.47
2023-03-11T23:05:42.241Z,62.58
2023-03-11T23:08:45.514Z,61.38
2023-03-11T23:11:50.157Z,61.51
2023-03-11T23:14:52.701Z,61.81
2023-03-11T23:17:55.592Z,61.73
2023-03-11T23:20:58.216Z,62.00
2023-03-11T23:24:02.922Z,61.65
2023-03-11T23:27:05.505Z,62.14
2023-03-11T23:30:10.757Z,62.22
2023-03-11T23:33:13.671Z,63.00
2023-03-11T23:36:21.003Z,63.61
2023-03-11T23:39:32.026Z,63.27
2023-03-11T23:43:16.086Z,63.81
2023-03-11T23:46:20.434Z,64.13
2023-03-11T23:49:23.346Z,63.65
2023-03-11T23:52:26.375Z,63.91
2023-03-11T23:55:29.429Z,63.78
2023-03-11T23:58:33.054Z,64.05
